Time;durP1;ratioP1;P1;durP2;ratioP2;P2;SDS_P1;SDS_P2;PMS_P1;PMS_P2;Temp;Humidity;BMP_temperature;BMP_pressure;BME280_temperature;BME280_humidity;BME280_pressure;Samples;Min_cycle;Max_cycle;Signal;HPM_P1;HPM_P2
2023/10/26 00:03:39;;;;;;;85.45;38.05;;;;;;;9.39;100.00;99468.88;10417422;28;20415;-74
2023/10/26 00:08:40;;;;;;;93.53;40.17;;;;;;;9.39;100.00;99471.63;10430024;28;20041;-75
2023/10/26 00:13:40;;;;;;;96.78;41.67;;;;;;;9.41;100.00;99471.34;10425051;28;20407;-73
2023/10/26 00:18:41;;;;;;;100.25;42.58;;;;;;;9.43;100.00;99478.19;10424284;28;20091;-74
2023/10/26 00:23:41;;;;;;;101.80;45.35;;;;;;;9.45;100.00;99480.69;10430695;28;20068;-74
2023/10/26 00:28:42;;;;;;;110.22;44.15;;;;;;;9.46;100.00;99477.63;10423383;28;20049;-74
2023/10/26 00:33:42;;;;;;;102.28;41.85;;;;;;;9.46;100.00;99480.38;10424096;28;20033;-74
2023/10/26 00:38:43;;;;;;;103.25;43.15;;;;;;;9.48;100.00;99488.34;10414315;28;20048;-74
2023/10/26 00:43:43;;;;;;;100.88;43.08;;;;;;;9.47;100.00;99486.72;10423904;28;20497;-73
2023/10/26 00:48:44;;;;;;;105.78;40.75;;;;;;;9.46;100.00;99496.03;10417944;28;20109;-74
2023/10/26 00:53:44;;;;;;;104.10;42.80;;;;;;;9.45;100.00;99484.25;10411357;28;20044;-74
2023/10/26 00:58:45;;;;;;;113.50;44.90;;;;;;;9.44;100.00;99488.06;10408566;28;20041;-75
2023/10/26 01:03:45;;;;;;;116.32;43.55;;;;;;;9.46;100.00;99493.28;10400133;28;20068;-74
2023/10/26 01:08:46;;;;;;;98.35;43.33;;;;;;;9.39;100.00;99490.84;10411693;28;20101;-74
2023/10/26 01:13:47;;;;;;;117.65;42.90;;;;;;;9.45;100.00;99505.41;10408410;28;20049;-73
2023/10/26 01:18:48;;;;;;;105.03;43.22;;;;;;;9.39;100.00;99510.09;10404427;28;20053;-72
2023/10/26 01:23:48;;;;;;;112.18;45.50;;;;;;;9.43;100.00;99522.16;10407096;28;20745;-74
2023/10/26 01:28:49;;;;;;;100.35;43.38;;;;;;;9.39;100.00;99512.81;10410824;28;20041;-74
2023/10/26 01:33:49;;;;;;;114.00;44.50;;;;;;;9.30;100.00;99495.25;10405935;28;20049;-74
2023/10/26 01:38:50;;;;;;;106.97;42.40;;;;;;;9.34;100.00;99506.53;10407305;28;20132;-73
2023/10/26 01:43:50;;;;;;;106.80;42.53;;;;;;;9.32;100.00;99504.03;10411635;28;20041;-74
2023/10/26 01:48:51;;;;;;;104.63;40.28;;;;;;;9.31;100.00;99509.84;10420666;28;20045;-74
2023/10/26 01:53:52;;;;;;;110.43;42.92;;;;;;;9.27;100.00;99512.31;10401702;28;20074;-74
2023/10/26 01:58:52;;;;;;;103.65;41.83;;;;;;;9.26;100.00;99529.88;10405886;28;20065;-75
2023/10/26 02:03:53;;;;;;;93.13;37.63;;;;;;;9.19;100.00;99519.19;10409127;28;20045;-73
2023/10/26 02:08:53;;;;;;;100.88;40.92;;;;;;;9.23;100.00;99531.25;10401661;28;20486;-74
2023/10/26 02:13:54;;;;;;;100.68;39.58;;;;;;;9.22;100.00;99528.78;10411660;28;20418;-70
2023/10/26 02:18:54;;;;;;;98.57;39.47;;;;;;;9.20;100.00;99520.84;10421452;28;20041;-74
2023/10/26 02:23:54;;;;;;;113.75;42.65;;;;;;;9.18;100.00;99522.25;10422308;28;20410;-75
2023/10/26 02:28:55;;;;;;;106.25;42.33;;;;;;;9.18;100.00;99514.00;10420547;28;20493;-74
2023/10/26 02:33:55;;;;;;;103.43;40.30;;;;;;;9.18;100.00;99523.06;10422347;28;20488;-73
2023/10/26 02:38:56;;;;;;;99.38;44.03;;;;;;;9.20;100.00;99528.25;10422974;28;20030;-75
2023/10/26 02:43:56;;;;;;;105.20;42.03;;;;;;;9.19;100.00;99532.09;10423043;28;20494;-74
2023/10/26 02:48:57;;;;;;;107.30;41.95;;;;;;;9.19;100.00;99534.84;10421868;28;20044;-74
2023/10/26 02:53:58;;;;;;;109.75;42.22;;;;;;;9.22;100.00;99537.03;10421735;28;20445;-75
2023/10/26 02:58:58;;;;;;;107.15;43.15;;;;;;;9.21;100.00;99543.63;10418083;28;20041;-75
2023/10/26 03:04:01;;;;;;;112.32;40.40;;;;;;;9.22;100.00;99550.75;10420479;28;20046;-74
2023/10/26 03:09:02;;;;;;;107.82;43.28;;;;;;;9.17;100.00;99539.78;10403712;28;20045;-76
2023/10/26 03:14:03;;;;;;;100.22;41.53;;;;;;;9.22;100.00;99542.53;10420191;28;20046;-74
2023/10/26 03:19:04;;;;;;;108.82;41.38;;;;;;;9.22;100.00;99542.53;10420844;28;20037;-77
2023/10/26 03:24:05;;;;;;;107.75;41.28;;;;;;;9.21;100.00;99543.63;10420534;28;20037;-75
2023/10/26 03:29:05;;;;;;;107.97;41.17;;;;;;;9.20;100.00;99555.69;10419004;28;20049;-76
2023/10/26 03:34:06;;;;;;;108.80;42.88;;;;;;;9.20;100.00;99548.31;10420827;28;20488;-74
2023/10/26 03:39:06;;;;;;;108.47;43.20;;;;;;;9.21;100.00;99555.44;10413279;28;20405;-74
2023/10/26 03:44:08;;;;;;;117.80;43.67;;;;;;;9.23;100.00;99561.47;10419958;28;20517;-74
2023/10/26 03:49:08;;;;;;;120.82;43.90;;;;;;;9.27;100.00;99569.97;10419773;28;20499;-76
2023/10/26 03:54:09;;;;;;;116.38;42.47;;;;;;;9.27;100.00;99559.00;10419096;28;20052;-75
2023/10/26 03:59:09;;;;;;;114.57;43.10;;;;;;;9.29;100.00;99557.63;10433035;28;20045;-75
2023/10/26 04:04:10;;;;;;;126.40;45.00;;;;;;;9.26;100.00;99543.59;10417220;28;20050;-75
2023/10/26 04:09:10;;;;;;;116.68;44.45;;;;;;;9.27;100.00;99548.00;10419001;28;20052;-74
2023/10/26 04:14:11;;;;;;;109.88;40.22;;;;;;;9.26;100.00;99546.34;10418548;28;20045;-74
2023/10/26 04:19:11;;;;;;;116.45;41.78;;;;;;;9.23;100.00;99530.44;10417077;28;20080;-75
2023/10/26 04:24:12;;;;;;;113.43;40.38;;;;;;;9.22;100.00;99545.25;10418323;28;20045;-74
2023/10/26 04:29:12;;;;;;;115.90;42.33;;;;;;;9.20;100.00;99526.34;10418034;28;20053;-74
2023/10/26 04:34:12;;;;;;;121.20;42.92;;;;;;;9.18;100.00;99531.28;10417613;28;20037;-75
2023/10/26 04:39:13;;;;;;;115.63;40.78;;;;;;;9.18;100.00;99535.97;10413025;28;20037;-75
2023/10/26 04:44:14;;;;;;;108.43;40.47;;;;;;;9.18;100.00;99535.97;10418320;28;20095;-73
2023/10/26 04:49:14;;;;;;;125.45;42.15;;;;;;;9.18;100.00;99545.03;10417493;28;20048;-75
2023/10/26 04:54:14;;;;;;;105.57;42.15;;;;;;;9.18;100.00;99550.50;10417118;28;20041;-74
2023/10/26 04:59:15;;;;;;;112.93;44.05;;;;;;;9.18;100.00;99547.75;10416125;28;20034;-75
2023/10/26 05:04:15;;;;;;;111.43;39.10;;;;;;;9.16;100.00;99540.91;10417407;28;20038;-75
2023/10/26 05:09:16;;;;;;;116.70;44.28;;;;;;;9.17;100.00;99545.28;10417299;28;20065;-75
2023/10/26 05:14:17;;;;;;;118.47;42.75;;;;;;;9.16;100.00;99540.91;10417611;28;20052;-74
2023/10/26 05:19:17;;;;;;;120.53;43.22;;;;;;;9.14;100.00;99537.63;10416521;28;20063;-72
2023/10/26 05:24:18;;;;;;;120.05;44.28;;;;;;;9.12;100.00;99534.34;10416220;28;20048;-75
2023/10/26 05:29:18;;;;;;;122.68;44.00;;;;;;;9.08;100.00;99528.56;10415200;28;20080;-75
2023/10/26 05:34:18;;;;;;;133.70;45.75;;;;;;;9.05;100.00;99526.34;10414301;28;20049;-75
2023/10/26 05:39:19;;;;;;;118.22;42.67;;;;;;;8.33;100.00;99441.38;10415783;28;20042;-74
2023/10/26 05:44:19;;;;;;;129.75;46.40;;;;;;;9.01;100.00;99534.34;10416545;28;20052;-75
2023/10/26 05:49:20;;;;;;;128.00;43.45;;;;;;;8.98;100.00;99518.41;10415479;28;20494;-75
2023/10/26 05:54:20;;;;;;;139.88;47.45;;;;;;;8.92;100.00;99525.00;10424340;28;20505;-75
2023/10/26 05:59:21;;;;;;;154.15;45.03;;;;;;;8.85;100.00;99522.56;10423070;28;20056;-74
2023/10/26 06:04:22;;;;;;;136.23;45.33;;;;;;;8.76;100.00;99526.94;10423697;28;20041;-74
2023/10/26 06:09:23;;;;;;;120.95;44.58;;;;;;;8.67;100.00;99531.34;10424257;28;20388;-74
2023/10/26 06:14:24;;;;;;;155.15;46.38;;;;;;;8.60;100.00;99539.84;10424038;28;20140;-74
2023/10/26 06:19:24;;;;;;;147.30;46.55;;;;;;;8.53;100.00;99535.72;10422909;28;20521;-73
2023/10/26 06:24:25;;;;;;;130.20;45.55;;;;;;;8.51;100.00;99546.97;10396813;28;20041;-68
2023/10/26 06:29:26;;;;;;;132.02;43.70;;;;;;;8.53;100.00;99552.19;10423366;28;20037;-74
2023/10/26 06:34:26;;;;;;;131.73;43.78;;;;;;;8.58;100.00;99543.94;10422188;28;20049;-74
2023/10/26 06:39:27;;;;;;;137.05;45.53;;;;;;;8.56;100.00;99544.25;10422935;28;20044;-74
2023/10/26 06:44:27;;;;;;;129.20;43.47;;;;;;;8.57;100.00;99545.88;10422349;28;20046;-74
2023/10/26 06:49:28;;;;;;;124.22;43.05;;;;;;;8.64;100.00;99557.41;10435521;28;20096;-74
2023/10/26 06:54:28;;;;;;;137.63;44.85;;;;;;;8.71;100.00;99570.03;10421428;28;20044;-74
2023/10/26 06:59:29;;;;;;;139.52;43.45;;;;;;;8.78;100.00;99560.41;10421316;28;20038;-74
2023/10/26 07:04:29;;;;;;;137.20;43.00;;;;;;;8.35;100.00;99509.63;10421084;28;20044;-74
2023/10/26 07:09:30;;;;;;;126.25;43.38;;;;;;;8.90;100.00;99562.88;10421505;28;20673;-74
2023/10/26 07:14:30;;;;;;;146.63;43.10;;;;;;;8.90;100.00;99560.16;10419787;28;20068;-73
2023/10/26 07:19:30;;;;;;;135.52;44.15;;;;;;;8.95;100.00;99564.81;10419646;28;20041;-68
2023/10/26 07:24:33;;;;;;;126.07;42.97;;;;;;;8.98;100.00;99567.81;10416225;28;22720;-74
2023/10/26 07:29:33;;;;;;;130.15;41.95;;;;;;;9.05;100.00;99570.28;10402189;28;20109;-74
2023/10/26 07:34:33;;;;;;;125.43;42.05;;;;;;;9.05;100.00;99570.28;10418420;28;20053;-74
2023/10/26 07:39:34;;;;;;;130.65;42.25;;;;;;;9.06;100.00;99569.19;10420756;28;20060;-73
2023/10/26 07:44:36;;;;;;;120.13;40.20;;;;;;;9.06;100.00;99569.19;10405653;28;20049;-74
2023/10/26 07:49:36;;;;;;;114.60;39.13;;;;;;;9.10;100.00;99559.31;10399116;28;20515;-74
2023/10/26 07:54:37;;;;;;;122.70;40.17;;;;;;;9.15;100.00;99566.72;10418586;28;20071;-73
2023/10/26 07:59:37;;;;;;;108.90;37.05;;;;;;;9.13;100.00;99555.19;10419248;28;20456;-75
2023/10/26 08:04:37;;;;;;;102.65;35.90;;;;;;;9.13;100.00;99563.41;10425480;28;20584;-74
2023/10/26 08:09:38;;;;;;;113.82;37.70;;;;;;;9.18;100.00;99566.16;10418150;28;20045;-75
2023/10/26 08:14:38;;;;;;;114.60;39.05;;;;;;;9.18;100.00;99564.25;10418114;28;20038;-74
2023/10/26 08:19:39;;;;;;;95.80;36.58;;;;;;;9.12;100.00;99567.28;10416500;28;20068;-69
2023/10/26 08:24:39;;;;;;;91.63;35.90;;;;;;;9.06;100.00;99575.50;10418544;28;20075;-75
2023/10/26 08:29:40;;;;;;;98.28;37.83;;;;;;;9.21;100.00;99568.34;10416551;28;20052;-75
2023/10/26 08:34:40;;;;;;;91.07;34.58;;;;;;;9.36;100.00;99573.81;10417251;28;20037;-75
2023/10/26 08:39:40;;;;;;;99.43;34.10;;;;;;;9.21;100.00;99549.13;10416631;28;20038;-74
2023/10/26 08:44:42;;;;;;;102.38;36.72;;;;;;;9.45;100.00;99585.88;10415216;28;20045;-74
2023/10/26 08:49:45;;;;;;;103.15;37.58;;;;;;;9.59;100.00;99588.03;10414699;28;20037;-75
2023/10/26 08:54:47;;;;;;;88.25;35.63;;;;;;;9.82;100.00;99592.91;10416541;28;20087;-77
2023/10/26 08:59:47;;;;;;;96.10;38.08;;;;;;;9.98;100.00;99612.09;10414651;28;20033;-76
2023/10/26 09:05:02;;;;;;;78.32;34.42;;;;;;;9.94;100.00;99609.06;10414196;28;20052;-75
2023/10/26 09:10:03;;;;;;;80.13;34.15;;;;;;;10.01;100.00;99617.03;10428176;28;20044;-75
2023/10/26 09:15:06;;;;;;;70.82;31.02;;;;;;;10.15;100.00;99628.22;10413027;28;20042;-75
2023/10/26 09:20:22;;;;;;;68.25;29.27;;;;;;;10.18;100.00;99623.00;10414317;28;20038;-76
2023/10/26 09:25:23;;;;;;;60.97;31.67;;;;;;;10.15;100.00;99629.06;10398274;28;20124;-76
2023/10/26 09:30:23;;;;;;;68.40;32.05;;;;;;;10.21;100.00;99633.44;10414280;28;20440;-75
2023/10/26 09:35:28;;;;;;;61.78;31.48;;;;;;;10.27;100.00;99621.31;10412024;28;20560;-74
2023/10/26 09:40:28;;;;;;;61.88;29.40;;;;;;;10.26;100.00;99630.66;10411568;28;20037;-75
2023/10/26 09:45:29;;;;;;;60.92;30.23;;;;;;;10.27;100.00;99614.97;10414777;28;20033;-76
2023/10/26 09:50:37;;;;;;;52.60;28.73;;;;;;;10.14;100.00;99571.59;10395574;28;20076;-75
2023/10/26 09:55:38;;;;;;;51.80;28.17;;;;;;;10.49;100.00;99623.69;10414847;28;20052;-75
2023/10/26 10:00:38;;;;;;;47.65;27.23;;;;;;;10.57;100.00;99619.50;10413958;28;20041;-75
2023/10/26 10:05:40;;;;;;;49.35;27.30;;;;;;;10.69;100.00;99632.94;10412701;28;20041;-77
2023/10/26 10:11:15;;;;;;;45.90;25.27;;;;;;;10.70;100.00;99635.38;10414068;28;20045;-76
2023/10/26 10:16:36;;;;;;;42.13;25.02;;;;;;;10.80;100.00;99647.44;10406910;28;20124;-75
2023/10/26 10:21:37;;;;;;;54.03;27.15;;;;;;;10.84;100.00;99662.28;10396009;28;20512;-76
2023/10/26 10:27:13;;;;;;;41.13;23.65;;;;;;;10.81;100.00;99665.59;10415092;28;20048;-75
2023/10/26 10:32:42;;;;;;;46.33;25.95;;;;;;;10.79;100.00;99660.41;10401500;28;20037;-75
2023/10/26 10:38:15;;;;;;;40.92;25.90;;;;;;;10.83;100.00;99652.38;10417980;28;20068;-75
2023/10/26 10:43:16;;;;;;;42.45;25.25;;;;;;;10.70;100.00;99645.56;10421661;28;20038;-74
2023/10/26 10:48:16;;;;;;;44.83;25.40;;;;;;;10.85;100.00;99658.41;10404304;28;20053;-75
2023/10/26 10:53:17;;;;;;;41.70;24.48;;;;;;;10.91;100.00;99657.25;10421814;28;20083;-77
2023/10/26 10:58:17;;;;;;;41.15;24.20;;;;;;;10.89;100.00;99649.31;10419885;28;20037;-76
2023/10/26 11:03:18;;;;;;;45.47;24.83;;;;;;;10.88;100.00;99638.56;10419137;28;20068;-76
2023/10/26 11:08:19;;;;;;;43.30;25.38;;;;;;;10.96;100.00;99646.22;10415385;28;20045;-75
2023/10/26 11:13:21;;;;;;;37.50;23.13;;;;;;;11.03;100.00;99632.94;10409608;28;20033;-75
2023/10/26 11:18:21;;;;;;;45.70;25.92;;;;;;;11.22;100.00;99635.00;10428747;28;20037;-76
2023/10/26 11:23:22;;;;;;;39.25;23.35;;;;;;;11.25;100.00;99634.44;10395379;28;20478;-69
2023/10/26 11:28:33;;;;;;;38.15;23.15;;;;;;;11.36;100.00;99637.91;10416976;28;20048;-76
2023/10/26 11:33:34;;;;;;;37.85;22.50;;;;;;;11.41;100.00;99627.66;10410901;28;20038;-76
2023/10/26 11:38:35;;;;;;;38.28;23.75;;;;;;;11.35;100.00;99625.22;10401721;28;20406;-76
2023/10/26 11:43:37;;;;;;;37.17;22.73;;;;;;;11.51;100.00;99624.81;10416220;28;20038;-77
2023/10/26 11:48:37;;;;;;;39.22;22.27;;;;;;;11.59;100.00;99617.00;10425705;28;20052;-77
2023/10/26 11:53:38;;;;;;;37.05;21.70;;;;;;;11.67;100.00;99616.38;10409478;28;20041;-76
2023/10/26 11:58:39;;;;;;;33.42;21.40;;;;;;;11.81;100.00;99608.22;10407233;28;20053;-75
2023/10/26 12:03:44;;;;;;;35.83;22.17;;;;;;;12.38;100.00;99605.59;10410362;28;20045;-75
2023/10/26 12:08:44;;;;;;;29.95;20.33;;;;;;;12.56;100.00;99595.69;10421226;28;20050;-75
2023/10/26 12:13:45;;;;;;;29.05;18.95;;;;;;;12.56;100.00;99607.53;10416598;28;20033;-75
2023/10/26 12:18:45;;;;;;;28.77;17.67;;;;;;;12.69;100.00;99598.50;10416689;28;20041;-76
2023/10/26 12:23:45;;;;;;;31.10;19.20;;;;;;;13.36;100.00;99589.13;10413768;28;20041;-76
2023/10/26 12:28:47;;;;;;;25.85;17.35;;;;;;;13.86;100.00;99578.22;10415709;28;20136;-75
2023/10/26 12:33:47;;;;;;;24.27;15.98;;;;;;;14.52;100.00;99572.34;10415324;28;20038;-75
2023/10/26 12:38:48;;;;;;;25.45;17.10;;;;;;;15.19;100.00;99590.16;10415574;28;20466;-75
2023/10/26 12:43:49;;;;;;;24.73;15.95;;;;;;;15.09;100.00;99577.41;10416489;28;20046;-75
2023/10/26 12:48:50;;;;;;;23.98;17.45;;;;;;;14.29;100.00;99588.94;10414818;28;20046;-75
2023/10/26 12:53:50;;;;;;;22.98;16.25;;;;;;;13.73;100.00;99590.91;10411373;28;20034;-74
2023/10/26 12:58:51;;;;;;;21.65;16.08;;;;;;;13.27;100.00;99593.69;10414924;28;20076;-76
2023/10/26 13:03:52;;;;;;;26.17;16.20;;;;;;;12.92;100.00;99593.19;10407587;28;20049;-74
2023/10/26 13:08:52;;;;;;;25.77;16.95;;;;;;;12.75;100.00;99588.19;10407853;28;20456;-74
2023/10/26 13:13:53;;;;;;;27.95;18.08;;;;;;;12.53;100.00;99591.59;10413965;28;20037;-73
2023/10/26 13:18:53;;;;;;;34.60;19.88;;;;;;;12.19;100.00;99575.22;10402653;28;20516;-74
2023/10/26 13:23:53;;;;;;;29.02;18.40;;;;;;;11.98;100.00;99560.88;10412689;28;20417;-74
2023/10/26 13:28:54;;;;;;;27.48;17.00;;;;;;;11.87;100.00;99571.19;10421208;28;20497;-73
2023/10/26 13:33:55;;;;;;;27.55;17.75;;;;;;;11.76;100.00;99566.91;10407105;28;20034;-73
2023/10/26 13:38:55;;;;;;;25.67;17.23;;;;;;;11.64;100.00;99559.88;10411716;28;20041;-74
2023/10/26 13:43:55;;;;;;;28.92;19.58;;;;;;;11.58;100.00;99563.00;10405076;28;20041;-73
2023/10/26 13:48:56;;;;;;;27.85;17.67;;;;;;;11.53;100.00;99563.84;10402647;28;20076;-73
2023/10/26 13:53:56;;;;;;;31.63;20.05;;;;;;;11.54;100.00;99571.03;10411297;28;20057;-73
2023/10/26 13:58:57;;;;;;;29.52;18.75;;;;;;;11.62;100.00;99555.78;10407283;28;20049;-73
2023/10/26 14:03:57;;;;;;;34.28;20.20;;;;;;;11.73;100.00;99550.97;10410262;28;20037;-73
2023/10/26 14:08:58;;;;;;;27.15;18.98;;;;;;;11.72;100.00;99555.66;10403865;28;20048;-73
2023/10/26 14:13:58;;;;;;;31.65;19.55;;;;;;;11.73;100.00;99546.25;10418276;28;20037;-73
2023/10/26 14:19:00;;;;;;;30.05;20.10;;;;;;;11.69;100.00;99556.25;10419588;28;20072;-73
2023/10/26 14:24:00;;;;;;;28.40;17.23;;;;;;;11.65;100.00;99533.13;10404887;28;20029;-73
2023/10/26 14:29:01;;;;;;;28.83;19.08;;;;;;;11.67;100.00;99541.94;10406310;28;20045;-72
2023/10/26 14:34:03;;;;;;;35.35;20.85;;;;;;;11.63;100.00;99546.38;10398476;28;20560;-73
2023/10/26 14:39:04;;;;;;;31.55;19.50;;;;;;;11.56;100.00;99535.72;10399289;28;20037;-74
2023/10/26 14:44:05;;;;;;;33.97;21.17;;;;;;;11.39;100.00;99530.69;10398709;28;20044;-73
2023/10/26 14:49:06;;;;;;;33.10;21.30;;;;;;;11.30;100.00;99526.91;10398143;28;20050;-73
2023/10/26 14:54:06;;;;;;;38.08;21.95;;;;;;;10.92;100.00;99476.38;10397914;28;20045;-73
2023/10/26 14:59:07;;;;;;;35.10;22.25;;;;;;;11.13;100.00;99515.53;10397367;28;20042;-73
2023/10/26 15:04:07;;;;;;;37.75;23.15;;;;;;;11.02;100.00;99512.06;10397830;28;20049;-67
2023/10/26 15:09:08;;;;;;;39.30;23.73;;;;;;;10.96;100.00;99511.28;10397444;28;20453;-73
2023/10/26 15:14:10;;;;;;;41.08;23.95;;;;;;;10.95;100.00;99509.63;10397044;28;20049;-73
2023/10/26 15:19:10;;;;;;;40.72;23.08;;;;;;;10.89;100.00;99510.78;10397035;28;20041;-73
2023/10/26 15:24:11;;;;;;;38.88;22.73;;;;;;;10.84;100.00;99516.38;10396959;28;20041;-71
2023/10/26 15:29:11;;;;;;;42.03;26.02;;;;;;;10.71;100.00;99506.84;10396652;28;20045;-73
2023/10/26 15:34:11;;;;;;;47.13;26.08;;;;;;;10.74;100.00;99505.44;10395725;28;20072;-73
2023/10/26 15:39:13;;;;;;;43.78;26.00;;;;;;;10.70;100.00;99507.94;10397452;28;20053;-73
2023/10/26 15:44:14;;;;;;;42.63;24.95;;;;;;;10.58;100.00;99500.06;10397361;28;20037;-73
2023/10/26 15:49:15;;;;;;;41.55;25.63;;;;;;;10.61;100.00;99510.50;10393077;28;20072;-74
2023/10/26 15:54:15;;;;;;;41.45;24.35;;;;;;;10.56;100.00;99513.28;10395346;28;20123;-74
2023/10/26 15:59:16;;;;;;;45.78;25.73;;;;;;;10.52;100.00;99514.97;10394059;28;20046;-73
2023/10/26 16:04:16;;;;;;;42.40;23.30;;;;;;;10.47;100.00;99509.50;10393382;28;20053;-73
2023/10/26 16:09:17;;;;;;;49.65;27.02;;;;;;;10.41;100.00;99500.47;10394456;28;20406;-68
2023/10/26 16:14:17;;;;;;;43.05;23.85;;;;;;;10.36;100.00;99497.78;10397325;28;21094;-73
2023/10/26 16:19:18;;;;;;;48.78;26.65;;;;;;;10.29;100.00;99489.84;10395253;28;20095;-74
2023/10/26 16:24:19;;;;;;;47.70;24.35;;;;;;;10.26;100.00;99490.38;10434864;28;20037;-73
2023/10/26 16:29:20;;;;;;;48.33;24.15;;;;;;;10.24;100.00;99489.03;10427341;28;20147;-73
2023/10/26 16:34:20;;;;;;;49.45;26.55;;;;;;;10.22;100.00;99480.25;10436681;28;20040;-73
2023/10/26 16:39:20;;;;;;;47.75;25.88;;;;;;;10.18;100.00;99479.16;10429938;28;20037;-73
2023/10/26 16:44:22;;;;;;;55.10;27.08;;;;;;;10.16;100.00;99481.38;10426256;28;20037;-73
2023/10/26 16:49:22;;;;;;;57.38;27.58;;;;;;;10.14;100.00;99489.09;10431710;28;20048;-73
2023/10/26 16:54:23;;;;;;;50.25;25.95;;;;;;;10.11;100.00;99485.00;10426100;28;20048;-74
2023/10/26 16:59:23;;;;;;;52.25;25.55;;;;;;;10.06;100.00;99482.25;10428959;28;20029;-74
2023/10/26 17:04:24;;;;;;;50.95;25.08;;;;;;;10.04;100.00;99479.78;10426888;28;20044;-72
2023/10/26 17:09:24;;;;;;;45.10;24.85;;;;;;;10.04;100.00;99479.78;10424903;28;20402;-72
2023/10/26 17:14:25;;;;;;;50.55;25.35;;;;;;;10.00;100.00;99462.22;10430343;28;20520;-73
2023/10/26 17:19:25;;;;;;;39.50;21.85;;;;;;;9.98;100.00;99469.13;10425588;28;20033;-73
2023/10/26 17:24:26;;;;;;;44.70;23.73;;;;;;;9.93;100.00;99469.16;10431426;28;20041;-74
2023/10/26 17:29:27;;;;;;;47.22;23.23;;;;;;;9.88;100.00;99475.50;10424058;28;20044;-73
2023/10/26 17:34:27;;;;;;;40.58;22.52;;;;;;;9.86;100.00;99472.19;10434719;28;20386;-73
2023/10/26 17:39:28;;;;;;;37.28;21.15;;;;;;;9.83;100.00;99468.09;10427262;28;20052;-73
2023/10/26 17:44:28;;;;;;;39.53;22.15;;;;;;;9.82;100.00;99460.97;10434765;28;20041;-73
2023/10/26 17:49:29;;;;;;;37.60;21.45;;;;;;;9.83;100.00;99468.09;10424494;28;20061;-74
2023/10/26 17:54:30;;;;;;;36.33;20.67;;;;;;;9.79;100.00;99461.53;10433088;28;20037;-73
2023/10/26 17:59:31;;;;;;;42.33;21.38;;;;;;;9.81;100.00;99469.50;10428945;28;20034;-72
2023/10/26 18:04:32;;;;;;;38.22;21.60;;;;;;;9.79;100.00;99474.47;10397121;28;20080;-73
2023/10/26 18:09:34;;;;;;;40.60;20.65;;;;;;;9.81;100.00;99484.06;10416268;28;20042;-72
2023/10/26 18:14:34;;;;;;;33.95;20.42;;;;;;;9.85;100.00;99496.13;10418021;28;20068;-73
2023/10/26 18:19:35;;;;;;;35.63;20.77;;;;;;;9.39;100.00;99413.94;10419787;28;20045;-69
2023/10/26 18:24:35;;;;;;;36.55;21.25;;;;;;;9.90;100.00;99490.63;10430465;28;20037;-73
2023/10/26 18:29:37;;;;;;;39.35;22.17;;;;;;;9.90;100.00;99490.63;10428359;28;20049;-72
2023/10/26 18:34:37;;;;;;;40.45;22.30;;;;;;;9.91;100.00;99496.94;10423141;28;20087;-72
2023/10/26 18:39:38;;;;;;;37.53;21.40;;;;;;;9.92;100.00;99503.25;10423720;28;20072;-73
2023/10/26 18:44:38;;;;;;;38.15;22.55;;;;;;;9.92;100.00;99503.25;10428175;28;20052;-73
2023/10/26 18:49:38;;;;;;;43.95;23.05;;;;;;;9.90;100.00;99503.50;10431209;28;20088;-73
2023/10/26 18:54:39;;;;;;;39.50;23.05;;;;;;;9.90;100.00;99496.13;10428300;28;20041;-73
2023/10/26 18:59:40;;;;;;;42.85;23.45;;;;;;;9.89;100.00;99494.47;10429841;28;20482;-73
2023/10/26 19:04:41;;;;;;;43.28;24.27;;;;;;;9.93;100.00;99491.16;10413572;28;20037;-75
2023/10/26 19:09:41;;;;;;;42.28;24.48;;;;;;;9.93;100.00;99491.97;10446682;28;20068;-73
2023/10/26 19:14:42;;;;;;;39.97;21.52;;;;;;;9.88;100.00;99484.59;10413917;28;20041;-73
2023/10/26 19:19:42;;;;;;;40.53;22.55;;;;;;;9.93;100.00;99489.22;10397013;28;20049;-74
2023/10/26 19:24:44;;;;;;;35.88;19.63;;;;;;;9.96;100.00;99487.81;10415006;28;20072;-74
2023/10/26 19:29:45;;;;;;;42.08;19.13;;;;;;;9.95;100.00;99494.44;10402547;28;20064;-74
2023/10/26 19:34:45;;;;;;;29.60;17.80;;;;;;;9.92;100.00;99486.75;10393979;28;20048;-74
2023/10/26 19:39:46;;;;;;;32.17;17.45;;;;;;;9.90;100.00;99495.28;10395975;28;20513;-74
2023/10/26 19:44:46;;;;;;;30.85;16.85;;;;;;;9.90;100.00;99496.13;10395934;28;20061;-73
2023/10/26 19:49:47;;;;;;;33.55;18.75;;;;;;;9.90;100.00;99489.78;10395282;28;20128;-72
2023/10/26 19:54:47;;;;;;;33.72;18.50;;;;;;;9.88;100.00;99489.22;10396228;28;20567;-71
2023/10/26 19:59:48;;;;;;;36.45;17.52;;;;;;;9.80;100.00;99468.69;10392952;28;20038;-72
2023/10/26 20:04:48;;;;;;;34.47;17.27;;;;;;;9.84;100.00;99475.25;10392570;28;20045;-72
2023/10/26 20:09:50;;;;;;;38.88;18.20;;;;;;;9.82;100.00;99465.66;10395836;28;20049;-72
2023/10/26 20:14:50;;;;;;;36.47;18.10;;;;;;;9.79;100.00;99461.53;10395447;28;20045;-72
2023/10/26 20:19:51;;;;;;;34.78;17.52;;;;;;;9.76;100.00;99459.38;10393806;28;20037;-71
2023/10/26 20:24:51;;;;;;;35.15;17.75;;;;;;;9.75;100.00;99465.13;10376065;28;20033;-72
2023/10/26 20:29:53;;;;;;;38.50;17.73;;;;;;;9.74;100.00;99458.81;10395868;28;20034;-72
2023/10/26 20:34:54;;;;;;;42.25;20.95;;;;;;;9.65;100.00;99463.25;10395453;28;20495;-72
2023/10/26 20:39:54;;;;;;;40.78;19.80;;;;;;;9.65;100.00;99468.75;10398217;28;20037;-71
2023/10/26 20:44:56;;;;;;;41.33;20.45;;;;;;;9.63;100.00;99457.22;10430666;28;20048;-72
2023/10/26 20:49:57;;;;;;;39.60;20.13;;;;;;;9.63;100.00;99458.06;10424621;28;20047;-72
2023/10/26 20:54:57;;;;;;;43.55;20.80;;;;;;;9.66;100.00;99443.75;10416006;28;20109;-73
2023/10/26 20:59:57;;;;;;;40.60;20.75;;;;;;;9.65;100.00;99433.03;10432292;28;20650;-72
2023/10/26 21:04:59;;;;;;;37.17;17.55;;;;;;;9.65;100.00;99420.13;10436314;28;20106;-72
2023/10/26 21:09:59;;;;;;;43.10;19.55;;;;;;;9.63;100.00;99421.50;10419853;28;20048;-73
2023/10/26 21:15:00;;;;;;;37.53;18.08;;;;;;;9.62;100.00;99411.63;10409343;28;20041;-73
2023/10/26 21:20:00;;;;;;;30.02;15.77;;;;;;;9.61;100.00;99416.31;10413943;28;20037;-72
2023/10/26 21:25:04;;;;;;;25.27;12.57;;;;;;;9.57;100.00;99411.63;10401605;28;20033;-72
2023/10/26 21:30:05;;;;;;;25.33;12.20;;;;;;;9.53;100.00;99408.66;10413172;28;20049;-73
2023/10/26 21:35:06;;;;;;;26.33;12.57;;;;;;;9.49;100.00;99413.06;10416113;28;20515;-72
2023/10/26 21:40:07;;;;;;;27.77;12.80;;;;;;;9.49;100.00;99407.59;10435395;28;20419;-72
2023/10/26 21:45:08;;;;;;;28.35;12.80;;;;;;;9.49;100.00;99407.59;10412196;28;20045;-73
2023/10/26 21:50:09;;;;;;;38.28;14.70;;;;;;;9.47;100.00;99405.09;10417808;28;20128;-73
2023/10/26 21:55:10;;;;;;;31.10;14.95;;;;;;;9.43;100.00;99373.81;10413570;28;20041;-73
2023/10/26 22:00:11;;;;;;;33.13;15.32;;;;;;;9.41;100.00;99366.97;10421898;28;20040;-74
2023/10/26 22:05:11;;;;;;;32.58;16.60;;;;;;;9.37;100.00;99387.88;10418304;28;20045;-73
2023/10/26 22:10:12;;;;;;;35.13;18.23;;;;;;;9.27;100.00;99395.03;10425006;28;20045;-73
2023/10/26 22:15:12;;;;;;;38.72;18.08;;;;;;;9.38;100.00;99420.53;10425782;28;20041;-73
2023/10/26 22:20:13;;;;;;;39.50;19.67;;;;;;;9.40;100.00;99421.06;10390469;28;20117;-74
2023/10/26 22:25:13;;;;;;;42.88;19.95;;;;;;;9.42;100.00;99418.84;10417567;28;20048;-72
2023/10/26 22:30:14;;;;;;;37.63;18.90;;;;;;;9.43;100.00;99415.03;10417823;28;20049;-73
2023/10/26 22:35:15;;;;;;;35.58;17.90;;;;;;;9.44;100.00;99404.84;10431655;28;20045;-73
2023/10/26 22:40:16;;;;;;;34.92;18.60;;;;;;;9.43;100.00;99398.53;10436489;28;20041;-73